sensor_id;sensor_type;location;lat;lon;timestamp;temperature;humidity
19878;DHT22;10101;52.204;9.910;2022-08-03T00:01:41;19.20;99.90
19878;DHT22;10101;52.204;9.910;2022-08-03T00:04:10;19.10;99.90
19878;DHT22;10101;52.204;9.910;2022-08-03T00:06:37;19.10;99.90
19878;DHT22;10101;52.204;9.910;2022-08-03T00:09:04;19.10;99.90
19878;DHT22;10101;52.204;9.910;2022-08-03T00:11:32;19.10;99.90
19878;DHT22;10101;52.204;9.910;2022-08-03T00:13:59;19.00;99.90
19878;DHT22;10101;52.204;9.910;2022-08-03T00:16:26;18.90;99.90
19878;DHT22;10101;52.204;9.910;2022-08-03T00:18:53;18.90;99.90
19878;DHT22;10101;52.204;9.910;2022-08-03T00:21:21;18.80;99.90
19878;DHT22;10101;52.204;9.910;2022-08-03T00:23:47;18.80;99.90
19878;DHT22;10101;52.204;9.910;2022-08-03T00:26:14;18.60;99.90
19878;DHT22;10101;52.204;9.910;2022-08-03T00:28:41;18.50;99.90
19878;DHT22;10101;52.204;9.910;2022-08-03T00:31:08;18.50;99.90
19878;DHT22;10101;52.204;9.910;2022-08-03T00:33:34;18.50;99.90
19878;DHT22;10101;52.204;9.910;2022-08-03T00:36:02;18.40;99.90
19878;DHT22;10101;52.204;9.910;2022-08-03T00:38:30;18.40;99.90
19878;DHT22;10101;52.204;9.910;2022-08-03T00:40:56;18.30;99.90
19878;DHT22;10101;52.204;9.910;2022-08-03T00:43:25;18.30;99.90
19878;DHT22;10101;52.204;9.910;2022-08-03T00:45:52;18.20;99.90
19878;DHT22;10101;52.204;9.910;2022-08-03T00:48:19;18.20;99.90
19878;DHT22;10101;52.204;9.910;2022-08-03T00:50:46;18.10;99.90
19878;DHT22;10101;52.204;9.910;2022-08-03T00:53:13;18.00;99.90
19878;DHT22;10101;52.204;9.910;2022-08-03T00:55:42;18.00;99.90
19878;DHT22;10101;52.204;9.910;2022-08-03T00:58:10;17.90;99.90
19878;DHT22;10101;52.204;9.910;2022-08-03T01:00:38;17.90;99.90
19878;DHT22;10101;52.204;9.910;2022-08-03T01:03:06;17.80;99.90
19878;DHT22;10101;52.204;9.910;2022-08-03T01:05:39;17.80;99.90
19878;DHT22;10101;52.204;9.910;2022-08-03T01:08:13;17.80;99.90
19878;DHT22;10101;52.204;9.910;2022-08-03T01:10:51;17.80;99.90
19878;DHT22;10101;52.204;9.910;2022-08-03T01:13:24;17.70;99.90
19878;DHT22;10101;52.204;9.910;2022-08-03T01:15:58;17.70;99.90
19878;DHT22;10101;52.204;9.910;2022-08-03T01:18:31;17.60;99.90
19878;DHT22;10101;52.204;9.910;2022-08-03T01:21:05;17.60;99.90
19878;DHT22;10101;52.204;9.910;2022-08-03T01:23:40;17.50;99.90
19878;DHT22;10101;52.204;9.910;2022-08-03T01:26:29;17.70;99.90
19878;DHT22;10101;52.204;9.910;2022-08-03T01:29:11;17.40;99.90
19878;DHT22;10101;52.204;9.910;2022-08-03T01:31:50;17.50;99.90
19878;DHT22;10101;52.204;9.910;2022-08-03T01:34:19;17.50;99.90
19878;DHT22;10101;52.204;9.910;2022-08-03T01:36:51;17.50;99.90
19878;DHT22;10101;52.204;9.910;2022-08-03T01:39:20;17.50;99.90
19878;DHT22;10101;52.204;9.910;2022-08-03T01:41:51;17.40;99.90
19878;DHT22;10101;52.204;9.910;2022-08-03T01:44:20;17.50;99.90
19878;DHT22;10101;52.204;9.910;2022-08-03T01:46:50;17.40;99.90
19878;DHT22;10101;52.204;9.910;2022-08-03T01:49:17;17.40;99.90
19878;DHT22;10101;52.204;9.910;2022-08-03T01:51:46;17.40;99.90
19878;DHT22;10101;52.204;9.910;2022-08-03T01:54:14;17.30;99.90
19878;DHT22;10101;52.204;9.910;2022-08-03T01:56:43;17.30;99.90
19878;DHT22;10101;52.204;9.910;2022-08-03T01:59:11;17.30;99.90
19878;DHT22;10101;52.204;9.910;2022-08-03T02:01:40;17.30;99.90
19878;DHT22;10101;52.204;9.910;2022-08-03T02:04:11;17.20;99.90
19878;DHT22;10101;52.204;9.910;2022-08-03T02:06:39;17.30;99.90
19878;DHT22;10101;52.204;9.910;2022-08-03T02:09:07;17.30;99.90
19878;DHT22;10101;52.204;9.910;2022-08-03T02:11:35;17.20;99.90
19878;DHT22;10101;52.204;9.910;2022-08-03T02:14:04;17.20;99.90
19878;DHT22;10101;52.204;9.910;2022-08-03T02:16:32;17.10;99.90
19878;DHT22;10101;52.204;9.910;2022-08-03T02:19:03;17.20;99.90
19878;DHT22;10101;52.204;9.910;2022-08-03T02:21:32;17.20;99.90
19878;DHT22;10101;52.204;9.910;2022-08-03T02:24:01;17.10;99.90
19878;DHT22;10101;52.204;9.910;2022-08-03T02:26:29;17.00;99.90
19878;DHT22;10101;52.204;9.910;2022-08-03T02:29:00;17.00;99.90
19878;DHT22;10101;52.204;9.910;2022-08-03T02:31:30;17.00;99.90
19878;DHT22;10101;52.204;9.910;2022-08-03T02:34:00;17.00;99.90
19878;DHT22;10101;52.204;9.910;2022-08-03T02:36:33;17.00;99.90
19878;DHT22;10101;52.204;9.910;2022-08-03T02:39:02;16.90;99.90
19878;DHT22;10101;52.204;9.910;2022-08-03T02:41:34;16.90;99.90
19878;DHT22;10101;52.204;9.910;2022-08-03T02:44:07;16.90;99.90
19878;DHT22;10101;52.204;9.910;2022-08-03T02:46:37;16.90;99.90
19878;DHT22;10101;52.204;9.910;2022-08-03T02:49:04;16.80;99.90
19878;DHT22;10101;52.204;9.910;2022-08-03T02:51:34;16.90;99.90
19878;DHT22;10101;52.204;9.910;2022-08-03T02:54:02;16.80;99.90
19878;DHT22;10101;52.204;9.910;2022-08-03T02:56:30;16.90;99.90
19878;DHT22;10101;52.204;9.910;2022-08-03T02:58:58;16.80;99.90
19878;DHT22;10101;52.204;9.910;2022-08-03T03:01:27;16.70;99.90
19878;DHT22;10101;52.204;9.910;2022-08-03T03:03:55;16.80;99.90
19878;DHT22;10101;52.204;9.910;2022-08-03T03:06:24;16.70;99.90
19878;DHT22;10101;52.204;9.910;2022-08-03T03:08:55;16.80;99.90
19878;DHT22;10101;52.204;9.910;2022-08-03T03:11:22;16.70;99.90
19878;DHT22;10101;52.204;9.910;2022-08-03T03:13:51;16.80;99.90
19878;DHT22;10101;52.204;9.910;2022-08-03T03:16:18;16.60;99.90
19878;DHT22;10101;52.204;9.910;2022-08-03T03:18:46;16.50;99.90
19878;DHT22;10101;52.204;9.910;2022-08-03T03:21:16;16.60;99.90
19878;DHT22;10101;52.204;9.910;2022-08-03T03:23:44;16.60;99.90
19878;DHT22;10101;52.204;9.910;2022-08-03T03:26:14;16.60;99.90
19878;DHT22;10101;52.204;9.910;2022-08-03T03:28:41;16.60;99.90
19878;DHT22;10101;52.204;9.910;2022-08-03T03:31:08;16.60;99.90
19878;DHT22;10101;52.204;9.910;2022-08-03T03:33:36;16.70;99.90
19878;DHT22;10101;52.204;9.910;2022-08-03T03:36:04;16.70;99.90
19878;DHT22;10101;52.204;9.910;2022-08-03T03:38:32;16.70;99.90
19878;DHT22;10101;52.204;9.910;2022-08-03T03:40:59;16.50;99.90
19878;DHT22;10101;52.204;9.910;2022-08-03T03:43:28;16.40;99.90
19878;DHT22;10101;52.204;9.910;2022-08-03T03:45:56;16.30;99.90
19878;DHT22;10101;52.204;9.910;2022-08-03T03:48:23;16.30;99.90
19878;DHT22;10101;52.204;9.910;2022-08-03T03:50:50;16.30;99.90
19878;DHT22;10101;52.204;9.910;2022-08-03T03:53:17;16.30;99.90
19878;DHT22;10101;52.204;9.910;2022-08-03T03:55:44;16.30;99.90
19878;DHT22;10101;52.204;9.910;2022-08-03T03:58:11;16.30;99.90
19878;DHT22;10101;52.204;9.910;2022-08-03T04:00:39;16.30;99.90
19878;DHT22;10101;52.204;9.910;2022-08-03T04:03:06;16.30;99.90
19878;DHT22;10101;52.204;9.910;2022-08-03T04:05:36;16.30;99.90
19878;DHT22;10101;52.204;9.910;2022-08-03T04:08:21;16.30;99.90
19878;DHT22;10101;52.204;9.910;2022-08-03T04:11:10;16.30;99.90
19878;DHT22;10101;52.204;9.910;2022-08-03T04:13:39;16.20;99.90
19878;DHT22;10101;52.204;9.910;2022-08-03T04:16:11;16.20;99.90
19878;DHT22;10101;52.204;9.910;2022-08-03T04:18:42;16.20;99.90
19878;DHT22;10101;52.204;9.910;2022-08-03T04:21:13;16.20;99.90
19878;DHT22;10101;52.204;9.910;2022-08-03T04:23:43;16.20;99.90
19878;DHT22;10101;52.204;9.910;2022-08-03T04:26:12;16.30;99.90
19878;DHT22;10101;52.204;9.910;2022-08-03T04:28:42;16.40;99.90
19878;DHT22;10101;52.204;9.910;2022-08-03T04:31:12;16.40;99.90
19878;DHT22;10101;52.204;9.910;2022-08-03T04:33:42;16.50;99.90
19878;DHT22;10101;52.204;9.910;2022-08-03T04:36:13;16.60;99.90
19878;DHT22;10101;52.204;9.910;2022-08-03T04:38:46;16.60;99.90
19878;DHT22;10101;52.204;9.910;2022-08-03T04:41:17;16.60;99.90
19878;DHT22;10101;52.204;9.910;2022-08-03T04:43:46;16.80;99.90
19878;DHT22;10101;52.204;9.910;2022-08-03T04:46:16;16.80;99.90
19878;DHT22;10101;52.204;9.910;2022-08-03T04:48:44;17.00;99.90
19878;DHT22;10101;52.204;9.910;2022-08-03T04:51:12;17.00;99.90
19878;DHT22;10101;52.204;9.910;2022-08-03T04:53:39;17.10;99.90
19878;DHT22;10101;52.204;9.910;2022-08-03T04:56:06;17.10;99.90
19878;DHT22;10101;52.204;9.910;2022-08-03T04:58:33;17.30;99.90
19878;DHT22;10101;52.204;9.910;2022-08-03T05:01:00;17.30;99.90
19878;DHT22;10101;52.204;9.910;2022-08-03T05:03:28;17.40;99.90
19878;DHT22;10101;52.204;9.910;2022-08-03T05:05:56;17.40;99.90
19878;DHT22;10101;52.204;9.910;2022-08-03T05:08:23;17.60;99.90
19878;DHT22;10101;52.204;9.910;2022-08-03T05:10:50;17.70;99.90
19878;DHT22;10101;52.204;9.910;2022-08-03T05:13:16;17.70;99.90
19878;DHT22;10101;52.204;9.910;2022-08-03T05:15:43;17.90;99.90
19878;DHT22;10101;52.204;9.910;2022-08-03T05:18:10;18.00;99.90
19878;DHT22;10101;52.204;9.910;2022-08-03T05:20:38;18.10;99.90
19878;DHT22;10101;52.204;9.910;2022-08-03T05:23:05;18.00;99.90
19878;DHT22;10101;52.204;9.910;2022-08-03T05:25:32;18.10;99.90
19878;DHT22;10101;52.204;9.910;2022-08-03T05:27:59;18.20;99.90
19878;DHT22;10101;52.204;9.910;2022-08-03T05:30:26;18.30;99.90
19878;DHT22;10101;52.204;9.910;2022-08-03T05:32:52;18.40;99.90
19878;DHT22;10101;52.204;9.910;2022-08-03T05:35:19;18.60;99.90
19878;DHT22;10101;52.204;9.910;2022-08-03T05:37:47;18.60;99.90
19878;DHT22;10101;52.204;9.910;2022-08-03T05:40:14;18.70;99.90
19878;DHT22;10101;52.204;9.910;2022-08-03T05:42:41;18.90;99.90
19878;DHT22;10101;52.204;9.910;2022-08-03T05:45:09;19.20;99.90
19878;DHT22;10101;52.204;9.910;2022-08-03T05:47:40;19.20;99.90
19878;DHT22;10101;52.204;9.910;2022-08-03T05:50:09;19.40;99.90
19878;DHT22;10101;52.204;9.910;2022-08-03T05:52:35;19.50;99.90
19878;DHT22;10101;52.204;9.910;2022-08-03T05:55:04;19.80;99.90
19878;DHT22;10101;52.204;9.910;2022-08-03T05:57:31;19.80;99.90
19878;DHT22;10101;52.204;9.910;2022-08-03T05:59:58;20.00;99.90
19878;DHT22;10101;52.204;9.910;2022-08-03T06:02:25;20.10;99.90
19878;DHT22;10101;52.204;9.910;2022-08-03T06:04:52;20.30;99.90
19878;DHT22;10101;52.204;9.910;2022-08-03T06:07:19;20.50;99.90
19878;DHT22;10101;52.204;9.910;2022-08-03T06:09:46;20.70;99.90
19878;DHT22;10101;52.204;9.910;2022-08-03T06:12:14;20.80;99.90
19878;DHT22;10101;52.204;9.910;2022-08-03T06:14:40;21.00;99.90
19878;DHT22;10101;52.204;9.910;2022-08-03T06:17:07;21.20;99.90
19878;DHT22;10101;52.204;9.910;2022-08-03T06:19:34;21.40;99.90
19878;DHT22;10101;52.204;9.910;2022-08-03T06:22:01;21.60;99.90
19878;DHT22;10101;52.204;9.910;2022-08-03T06:24:28;21.70;99.90
19878;DHT22;10101;52.204;9.910;2022-08-03T06:26:56;21.80;99.90
19878;DHT22;10101;52.204;9.910;2022-08-03T06:29:24;21.80;1.00
19878;DHT22;10101;52.204;9.910;2022-08-03T06:31:50;21.90;99.90
19878;DHT22;10101;52.204;9.910;2022-08-03T06:34:17;22.20;47.20
19878;DHT22;10101;52.204;9.910;2022-08-03T06:36:44;22.30;1.00
19878;DHT22;10101;52.204;9.910;2022-08-03T06:39:13;22.40;99.90
19878;DHT22;10101;52.204;9.910;2022-08-03T06:41:40;22.60;1.00
19878;DHT22;10101;52.204;9.910;2022-08-03T06:44:07;22.80;77.50
19878;DHT22;10101;52.204;9.910;2022-08-03T06:46:35;23.00;1.00
19878;DHT22;10101;52.204;9.910;2022-08-03T06:49:01;23.10;1.00
19878;DHT22;10101;52.204;9.910;2022-08-03T06:51:28;23.70;99.90
19878;DHT22;10101;52.204;9.910;2022-08-03T06:53:55;24.20;1.00
19878;DHT22;10101;52.204;9.910;2022-08-03T06:56:22;24.40;99.90
19878;DHT22;10101;52.204;9.910;2022-08-03T06:58:49;24.40;1.00
19878;DHT22;10101;52.204;9.910;2022-08-03T07:01:16;24.80;99.90
19878;DHT22;10101;52.204;9.910;2022-08-03T07:03:44;24.80;99.90
19878;DHT22;10101;52.204;9.910;2022-08-03T07:06:11;25.20;1.00
19878;DHT22;10101;52.204;9.910;2022-08-03T07:08:37;25.30;1.00
19878;DHT22;10101;52.204;9.910;2022-08-03T07:11:04;24.90;99.90
19878;DHT22;10101;52.204;9.910;2022-08-03T07:13:32;25.20;99.90
19878;DHT22;10101;52.204;9.910;2022-08-03T07:15:59;25.20;99.90
19878;DHT22;10101;52.204;9.910;2022-08-03T07:18:25;25.50;99.90
19878;DHT22;10101;52.204;9.910;2022-08-03T07:20:53;25.80;7.00
19878;DHT22;10101;52.204;9.910;2022-08-03T07:23:20;25.70;1.00
19878;DHT22;10101;52.204;9.910;2022-08-03T07:25:47;26.00;1.00
19878;DHT22;10101;52.204;9.910;2022-08-03T07:28:15;26.10;1.00
19878;DHT22;10101;52.204;9.910;2022-08-03T07:30:42;26.00;1.00
19878;DHT22;10101;52.204;9.910;2022-08-03T07:33:09;26.10;1.00
19878;DHT22;10101;52.204;9.910;2022-08-03T07:35:36;26.20;1.00
19878;DHT22;10101;52.204;9.910;2022-08-03T07:38:04;26.10;1.00
19878;DHT22;10101;52.204;9.910;2022-08-03T07:40:30;26.10;99.90
19878;DHT22;10101;52.204;9.910;2022-08-03T07:42:57;26.30;99.90
19878;DHT22;10101;52.204;9.910;2022-08-03T07:45:24;26.30;99.90
19878;DHT22;10101;52.204;9.910;2022-08-03T07:47:51;26.40;99.90
19878;DHT22;10101;52.204;9.910;2022-08-03T07:50:18;26.70;99.90
19878;DHT22;10101;52.204;9.910;2022-08-03T07:52:45;26.40;99.90
19878;DHT22;10101;52.204;9.910;2022-08-03T07:55:18;26.90;99.90
19878;DHT22;10101;52.204;9.910;2022-08-03T07:57:45;26.80;75.80
19878;DHT22;10101;52.204;9.910;2022-08-03T08:00:14;26.90;32.80
19878;DHT22;10101;52.204;9.910;2022-08-03T08:02:42;27.40;1.00
19878;DHT22;10101;52.204;9.910;2022-08-03T08:05:09;27.20;1.00
19878;DHT22;10101;52.204;9.910;2022-08-03T08:07:37;27.40;1.00
19878;DHT22;10101;52.204;9.910;2022-08-03T08:10:06;27.70;1.00
19878;DHT22;10101;52.204;9.910;2022-08-03T08:12:36;27.80;1.00
19878;DHT22;10101;52.204;9.910;2022-08-03T08:15:04;27.50;1.00
19878;DHT22;10101;52.204;9.910;2022-08-03T08:17:40;27.40;1.00
19878;DHT22;10101;52.204;9.910;2022-08-03T08:20:08;27.30;1.00
19878;DHT22;10101;52.204;9.910;2022-08-03T08:22:35;27.40;1.00
19878;DHT22;10101;52.204;9.910;2022-08-03T08:25:02;27.70;1.00
19878;DHT22;10101;52.204;9.910;2022-08-03T08:27:30;27.50;1.00
19878;DHT22;10101;52.204;9.910;2022-08-03T08:29:58;27.50;1.00
19878;DHT22;10101;52.204;9.910;2022-08-03T08:32:25;27.90;99.90
19878;DHT22;10101;52.204;9.910;2022-08-03T08:34:52;27.80;99.90
19878;DHT22;10101;52.204;9.910;2022-08-03T08:37:19;27.60;99.90
19878;DHT22;10101;52.204;9.910;2022-08-03T08:39:46;27.60;99.90
19878;DHT22;10101;52.204;9.910;2022-08-03T08:42:14;27.90;99.90
19878;DHT22;10101;52.204;9.910;2022-08-03T08:44:41;28.00;99.90
19878;DHT22;10101;52.204;9.910;2022-08-03T08:47:09;28.50;99.90
19878;DHT22;10101;52.204;9.910;2022-08-03T08:49:37;28.30;99.90
19878;DHT22;10101;52.204;9.910;2022-08-03T08:52:07;28.20;99.90
19878;DHT22;10101;52.204;9.910;2022-08-03T08:54:35;28.10;99.90
19878;DHT22;10101;52.204;9.910;2022-08-03T08:57:03;28.20;99.90
19878;DHT22;10101;52.204;9.910;2022-08-03T08:59:32;28.20;99.90
19878;DHT22;10101;52.204;9.910;2022-08-03T09:02:00;28.40;99.90
19878;DHT22;10101;52.204;9.910;2022-08-03T09:04:29;28.40;99.90
19878;DHT22;10101;52.204;9.910;2022-08-03T09:06:56;28.40;99.90
19878;DHT22;10101;52.204;9.910;2022-08-03T09:09:23;28.80;99.90
19878;DHT22;10101;52.204;9.910;2022-08-03T09:11:49;28.60;99.90
19878;DHT22;10101;52.204;9.910;2022-08-03T09:14:17;28.80;84.60
19878;DHT22;10101;52.204;9.910;2022-08-03T09:16:57;28.50;78.90
19878;DHT22;10101;52.204;9.910;2022-08-03T09:19:29;28.70;14.60
19878;DHT22;10101;52.204;9.910;2022-08-03T09:22:13;28.90;44.20
19878;DHT22;10101;52.204;9.910;2022-08-03T09:24:53;28.90;1.00
19878;DHT22;10101;52.204;9.910;2022-08-03T09:27:21;28.90;1.00
19878;DHT22;10101;52.204;9.910;2022-08-03T09:29:48;28.60;1.00
19878;DHT22;10101;52.204;9.910;2022-08-03T09:32:18;28.70;1.00
19878;DHT22;10101;52.204;9.910;2022-08-03T09:34:47;28.90;1.00
19878;DHT22;10101;52.204;9.910;2022-08-03T09:37:15;28.80;1.00
19878;DHT22;10101;52.204;9.910;2022-08-03T09:39:43;28.70;1.00
19878;DHT22;10101;52.204;9.910;2022-08-03T09:42:11;28.70;1.00
19878;DHT22;10101;52.204;9.910;2022-08-03T09:44:40;28.80;1.00
19878;DHT22;10101;52.204;9.910;2022-08-03T09:47:10;28.90;1.00
19878;DHT22;10101;52.204;9.910;2022-08-03T09:49:37;29.10;1.00
19878;DHT22;10101;52.204;9.910;2022-08-03T09:52:15;29.00;1.00
19878;DHT22;10101;52.204;9.910;2022-08-03T09:54:43;29.20;1.00
19878;DHT22;10101;52.204;9.910;2022-08-03T09:57:20;29.10;1.00
19878;DHT22;10101;52.204;9.910;2022-08-03T09:59:48;29.20;1.00
19878;DHT22;10101;52.204;9.910;2022-08-03T10:02:22;29.50;1.00
19878;DHT22;10101;52.204;9.910;2022-08-03T10:04:50;29.40;1.00
19878;DHT22;10101;52.204;9.910;2022-08-03T10:07:19;29.50;1.00
19878;DHT22;10101;52.204;9.910;2022-08-03T10:09:54;29.60;1.00
19878;DHT22;10101;52.204;9.910;2022-08-03T10:12:21;29.70;1.00
19878;DHT22;10101;52.204;9.910;2022-08-03T10:14:48;29.70;1.00
19878;DHT22;10101;52.204;9.910;2022-08-03T10:17:15;29.50;1.00
19878;DHT22;10101;52.204;9.910;2022-08-03T10:19:42;29.40;1.00
19878;DHT22;10101;52.204;9.910;2022-08-03T10:22:12;29.60;1.00
19878;DHT22;10101;52.204;9.910;2022-08-03T10:24:47;29.90;1.00
19878;DHT22;10101;52.204;9.910;2022-08-03T10:27:16;29.90;1.00
19878;DHT22;10101;52.204;9.910;2022-08-03T10:29:48;29.80;1.00
19878;DHT22;10101;52.204;9.910;2022-08-03T10:32:21;30.10;1.00
19878;DHT22;10101;52.204;9.910;2022-08-03T10:34:49;30.30;1.00
19878;DHT22;10101;52.204;9.910;2022-08-03T10:37:18;30.10;1.00
19878;DHT22;10101;52.204;9.910;2022-08-03T10:39:49;30.20;1.00
19878;DHT22;10101;52.204;9.910;2022-08-03T10:42:20;30.00;1.00
19878;DHT22;10101;52.204;9.910;2022-08-03T10:44:51;30.40;1.00
19878;DHT22;10101;52.204;9.910;2022-08-03T10:47:20;30.00;1.00
19878;DHT22;10101;52.204;9.910;2022-08-03T10:49:48;30.60;1.00
19878;DHT22;10101;52.204;9.910;2022-08-03T10:52:15;31.20;1.00
19878;DHT22;10101;52.204;9.910;2022-08-03T10:54:43;30.50;1.00
19878;DHT22;10101;52.204;9.910;2022-08-03T10:57:49;30.40;1.00
19878;DHT22;10101;52.204;9.910;2022-08-03T11:00:18;30.40;1.00
19878;DHT22;10101;52.204;9.910;2022-08-03T11:03:03;30.40;1.00
19878;DHT22;10101;52.204;9.910;2022-08-03T11:05:32;30.30;1.00
19878;DHT22;10101;52.204;9.910;2022-08-03T11:08:22;30.40;1.00
19878;DHT22;10101;52.204;9.910;2022-08-03T11:10:51;30.60;1.00
19878;DHT22;10101;52.204;9.910;2022-08-03T11:13:22;30.50;1.00
19878;DHT22;10101;52.204;9.910;2022-08-03T11:15:52;30.50;1.00
19878;DHT22;10101;52.204;9.910;2022-08-03T11:18:19;30.40;1.00
19878;DHT22;10101;52.204;9.910;2022-08-03T11:20:48;30.70;1.00
19878;DHT22;10101;52.204;9.910;2022-08-03T11:23:17;30.60;99.90
19878;DHT22;10101;52.204;9.910;2022-08-03T11:26:09;30.50;99.90
19878;DHT22;10101;52.204;9.910;2022-08-03T11:28:38;30.50;99.90
19878;DHT22;10101;52.204;9.910;2022-08-03T11:31:43;30.70;99.90
19878;DHT22;10101;52.204;9.910;2022-08-03T11:34:11;30.50;99.90
19878;DHT22;10101;52.204;9.910;2022-08-03T11:39:45;30.70;99.90
19878;DHT22;10101;52.204;9.910;2022-08-03T11:42:40;30.80;99.90
19878;DHT22;10101;52.204;9.910;2022-08-03T11:45:11;30.90;99.90
19878;DHT22;10101;52.204;9.910;2022-08-03T11:47:39;31.10;99.90
19878;DHT22;10101;52.204;9.910;2022-08-03T11:50:08;31.00;99.90
19878;DHT22;10101;52.204;9.910;2022-08-03T11:52:39;31.10;99.90
19878;DHT22;10101;52.204;9.910;2022-08-03T11:55:11;31.30;99.90
19878;DHT22;10101;52.204;9.910;2022-08-03T11:57:38;32.20;99.90
19878;DHT22;10101;52.204;9.910;2022-08-03T12:00:25;32.20;99.90
19878;DHT22;10101;52.204;9.910;2022-08-03T12:03:04;32.00;99.90
19878;DHT22;10101;52.204;9.910;2022-08-03T12:05:39;32.40;99.90
19878;DHT22;10101;52.204;9.910;2022-08-03T12:08:08;32.40;99.90
19878;DHT22;10101;52.204;9.910;2022-08-03T12:10:35;32.30;99.90
19878;DHT22;10101;52.204;9.910;2022-08-03T12:13:03;32.10;99.90
19878;DHT22;10101;52.204;9.910;2022-08-03T12:15:35;32.00;99.90
19878;DHT22;10101;52.204;9.910;2022-08-03T12:18:13;31.90;99.90
19878;DHT22;10101;52.204;9.910;2022-08-03T12:20:40;32.20;99.90
19878;DHT22;10101;52.204;9.910;2022-08-03T12:23:08;32.50;99.90
19878;DHT22;10101;52.204;9.910;2022-08-03T12:25:36;32.10;99.90
19878;DHT22;10101;52.204;9.910;2022-08-03T12:28:12;32.00;99.90
19878;DHT22;10101;52.204;9.910;2022-08-03T12:30:42;32.10;99.90
19878;DHT22;10101;52.204;9.910;2022-08-03T12:33:21;32.50;99.90
19878;DHT22;10101;52.204;9.910;2022-08-03T12:36:02;32.80;99.90
19878;DHT22;10101;52.204;9.910;2022-08-03T12:38:30;32.70;99.90
19878;DHT22;10101;52.204;9.910;2022-08-03T12:40:58;32.50;99.90
19878;DHT22;10101;52.204;9.910;2022-08-03T12:43:25;32.60;99.90
19878;DHT22;10101;52.204;9.910;2022-08-03T12:46:08;32.50;99.90
19878;DHT22;10101;52.204;9.910;2022-08-03T12:48:35;32.20;99.90
19878;DHT22;10101;52.204;9.910;2022-08-03T12:51:09;32.10;99.90
19878;DHT22;10101;52.204;9.910;2022-08-03T12:53:36;32.30;99.90
19878;DHT22;10101;52.204;9.910;2022-08-03T12:56:05;32.10;99.90
19878;DHT22;10101;52.204;9.910;2022-08-03T12:58:34;32.10;99.90
19878;DHT22;10101;52.204;9.910;2022-08-03T13:01:02;32.30;99.90
19878;DHT22;10101;52.204;9.910;2022-08-03T13:03:39;32.20;99.90
19878;DHT22;10101;52.204;9.910;2022-08-03T13:06:10;32.10;99.90
19878;DHT22;10101;52.204;9.910;2022-08-03T13:08:38;32.50;99.90
19878;DHT22;10101;52.204;9.910;2022-08-03T13:11:22;32.60;99.90
19878;DHT22;10101;52.204;9.910;2022-08-03T13:13:50;32.50;99.90
19878;DHT22;10101;52.204;9.910;2022-08-03T13:16:17;32.70;99.90
19878;DHT22;10101;52.204;9.910;2022-08-03T13:18:45;32.60;99.90
19878;DHT22;10101;52.204;9.910;2022-08-03T13:21:13;32.60;99.90
19878;DHT22;10101;52.204;9.910;2022-08-03T13:23:40;33.70;99.90
19878;DHT22;10101;52.204;9.910;2022-08-03T13:26:07;33.70;99.90
19878;DHT22;10101;52.204;9.910;2022-08-03T13:28:34;33.10;99.90
19878;DHT22;10101;52.204;9.910;2022-08-03T13:31:03;32.80;99.90
19878;DHT22;10101;52.204;9.910;2022-08-03T13:33:30;33.40;99.90
19878;DHT22;10101;52.204;9.910;2022-08-03T13:35:58;33.60;99.90
19878;DHT22;10101;52.204;9.910;2022-08-03T13:38:24;34.60;99.90
19878;DHT22;10101;52.204;9.910;2022-08-03T13:40:51;34.90;99.90
19878;DHT22;10101;52.204;9.910;2022-08-03T13:43:18;35.40;99.90
19878;DHT22;10101;52.204;9.910;2022-08-03T13:45:45;34.60;99.90
19878;DHT22;10101;52.204;9.910;2022-08-03T13:48:12;36.00;99.90
19878;DHT22;10101;52.204;9.910;2022-08-03T13:50:39;34.60;99.90
19878;DHT22;10101;52.204;9.910;2022-08-03T13:53:07;35.30;99.90
19878;DHT22;10101;52.204;9.910;2022-08-03T13:55:34;35.10;99.90
19878;DHT22;10101;52.204;9.910;2022-08-03T13:58:01;34.90;99.90
19878;DHT22;10101;52.204;9.910;2022-08-03T14:00:28;34.90;99.90
19878;DHT22;10101;52.204;9.910;2022-08-03T14:02:59;34.40;99.90
19878;DHT22;10101;52.204;9.910;2022-08-03T14:05:27;34.30;99.90
19878;DHT22;10101;52.204;9.910;2022-08-03T14:07:54;34.80;99.90
19878;DHT22;10101;52.204;9.910;2022-08-03T14:10:22;34.60;99.90
19878;DHT22;10101;52.204;9.910;2022-08-03T14:12:49;34.30;99.90
19878;DHT22;10101;52.204;9.910;2022-08-03T14:15:16;34.10;99.90
19878;DHT22;10101;52.204;9.910;2022-08-03T14:17:43;34.00;99.90
19878;DHT22;10101;52.204;9.910;2022-08-03T14:20:10;33.60;99.90
19878;DHT22;10101;52.204;9.910;2022-08-03T14:22:39;34.40;99.90
19878;DHT22;10101;52.204;9.910;2022-08-03T14:25:06;35.00;99.90
19878;DHT22;10101;52.204;9.910;2022-08-03T14:27:34;34.90;99.90
19878;DHT22;10101;52.204;9.910;2022-08-03T14:30:02;35.10;99.90
19878;DHT22;10101;52.204;9.910;2022-08-03T14:32:29;34.40;99.90
19878;DHT22;10101;52.204;9.910;2022-08-03T14:34:56;34.50;99.90
19878;DHT22;10101;52.204;9.910;2022-08-03T14:37:23;34.60;99.90
19878;DHT22;10101;52.204;9.910;2022-08-03T14:39:49;35.60;99.90
19878;DHT22;10101;52.204;9.910;2022-08-03T14:42:16;36.10;99.90
19878;DHT22;10101;52.204;9.910;2022-08-03T14:44:46;35.80;99.90
19878;DHT22;10101;52.204;9.910;2022-08-03T14:47:13;35.20;99.90
19878;DHT22;10101;52.204;9.910;2022-08-03T14:49:40;34.00;99.90
19878;DHT22;10101;52.204;9.910;2022-08-03T14:52:07;33.60;99.90
19878;DHT22;10101;52.204;9.910;2022-08-03T14:54:34;33.30;99.90
19878;DHT22;10101;52.204;9.910;2022-08-03T14:57:01;33.00;99.90
19878;DHT22;10101;52.204;9.910;2022-08-03T14:59:28;33.10;99.90
19878;DHT22;10101;52.204;9.910;2022-08-03T15:01:56;32.80;99.90
19878;DHT22;10101;52.204;9.910;2022-08-03T15:04:22;32.60;99.90
19878;DHT22;10101;52.204;9.910;2022-08-03T15:06:49;32.60;99.90
19878;DHT22;10101;52.204;9.910;2022-08-03T15:09:16;32.70;99.90
19878;DHT22;10101;52.204;9.910;2022-08-03T15:11:43;32.80;99.90
19878;DHT22;10101;52.204;9.910;2022-08-03T15:14:10;32.80;99.90
19878;DHT22;10101;52.204;9.910;2022-08-03T15:16:37;32.70;99.90
19878;DHT22;10101;52.204;9.910;2022-08-03T15:19:05;32.80;99.90
19878;DHT22;10101;52.204;9.910;2022-08-03T15:21:32;32.70;99.90
19878;DHT22;10101;52.204;9.910;2022-08-03T15:23:59;32.90;99.90
19878;DHT22;10101;52.204;9.910;2022-08-03T15:26:25;32.80;99.90
19878;DHT22;10101;52.204;9.910;2022-08-03T15:28:52;32.80;99.90
19878;DHT22;10101;52.204;9.910;2022-08-03T15:31:20;32.80;99.90
19878;DHT22;10101;52.204;9.910;2022-08-03T15:33:47;32.60;99.90
19878;DHT22;10101;52.204;9.910;2022-08-03T15:36:16;32.70;99.90
19878;DHT22;10101;52.204;9.910;2022-08-03T15:38:44;33.40;99.90
19878;DHT22;10101;52.204;9.910;2022-08-03T15:41:11;34.20;99.90
19878;DHT22;10101;52.204;9.910;2022-08-03T15:43:38;33.70;99.90
19878;DHT22;10101;52.204;9.910;2022-08-03T15:46:05;34.30;99.90
19878;DHT22;10101;52.204;9.910;2022-08-03T15:48:32;35.00;99.90
19878;DHT22;10101;52.204;9.910;2022-08-03T15:50:58;34.20;99.90